sensor_id;sensor_type;location;lat;lon;timestamp;pressure;altitude;pressure_sealevel;temperature;humidity
49541;BME280;35432;43.566;1.398;2023-01-28T00:00:26;100436.00;;;4.58;76.05
49541;BME280;35432;43.566;1.398;2023-01-28T00:02:51;100437.69;;;4.56;76.09
49541;BME280;35432;43.566;1.398;2023-01-28T00:05:17;100433.34;;;4.55;76.28
49541;BME280;35432;43.566;1.398;2023-01-28T00:07:42;100433.25;;;4.52;76.06
49541;BME280;35432;43.566;1.398;2023-01-28T00:10:08;100434.06;;;4.50;75.87
49541;BME280;35432;43.566;1.398;2023-01-28T00:12:34;100434.09;;;4.51;76.05
49541;BME280;35432;43.566;1.398;2023-01-28T00:15:00;100438.41;;;4.49;76.01
49541;BME280;35432;43.566;1.398;2023-01-28T00:17:25;100435.81;;;4.51;76.06
49541;BME280;35432;43.566;1.398;2023-01-28T00:19:50;100434.97;;;4.50;76.17
49541;BME280;35432;43.566;1.398;2023-01-28T00:22:16;100418.41;;;4.50;76.06
49541;BME280;35432;43.566;1.398;2023-01-28T00:24:41;100417.63;;;4.52;75.86
49541;BME280;35432;43.566;1.398;2023-01-28T00:27:07;100418.47;;;4.51;76.16
49541;BME280;35432;43.566;1.398;2023-01-28T00:29:32;100421.06;;;4.51;75.91
49541;BME280;35432;43.566;1.398;2023-01-28T00:31:58;100426.22;;;4.48;76.06
49541;BME280;35432;43.566;1.398;2023-01-28T00:34:23;100421.84;;;4.47;76.02
49541;BME280;35432;43.566;1.398;2023-01-28T00:36:49;100425.28;;;4.46;76.36
49541;BME280;35432;43.566;1.398;2023-01-28T00:39:22;100420.91;;;4.45;76.07
49541;BME280;35432;43.566;1.398;2023-01-28T00:41:49;100420.06;;;4.46;76.15
49541;BME280;35432;43.566;1.398;2023-01-28T00:44:14;100416.53;;;4.44;76.15
49541;BME280;35432;43.566;1.398;2023-01-28T00:46:40;100406.94;;;4.43;75.99
49541;BME280;35432;43.566;1.398;2023-01-28T00:49:06;100412.16;;;4.41;75.85
49541;BME280;35432;43.566;1.398;2023-01-28T00:51:32;100412.09;;;4.40;76.16
49541;BME280;35432;43.566;1.398;2023-01-28T00:53:58;100403.44;;;4.41;76.35
49541;BME280;35432;43.566;1.398;2023-01-28T00:56:23;100414.75;;;4.41;76.43
49541;BME280;35432;43.566;1.398;2023-01-28T00:58:49;100412.09;;;4.40;76.03
49541;BME280;35432;43.566;1.398;2023-01-28T01:01:20;100408.56;;;4.38;76.08
49541;BME280;35432;43.566;1.398;2023-01-28T01:03:46;100406.88;;;4.40;76.29
49541;BME280;35432;43.566;1.398;2023-01-28T01:06:13;100397.28;;;4.37;76.20
49541;BME280;35432;43.566;1.398;2023-01-28T01:08:40;100396.38;;;4.37;75.85
49541;BME280;35432;43.566;1.398;2023-01-28T01:11:08;100394.59;;;4.34;76.01
49541;BME280;35432;43.566;1.398;2023-01-28T01:13:35;100394.56;;;4.33;75.77
49541;BME280;35432;43.566;1.398;2023-01-28T01:16:20;100394.41;;;4.26;75.46
49541;BME280;35432;43.566;1.398;2023-01-28T01:18:45;100398.78;;;4.27;75.87
49541;BME280;35432;43.566;1.398;2023-01-28T01:21:14;100398.78;;;4.27;76.06
49541;BME280;35432;43.566;1.398;2023-01-28T01:23:40;100401.31;;;4.24;76.27
49541;BME280;35432;43.566;1.398;2023-01-28T01:26:06;100405.66;;;4.24;76.37
49541;BME280;35432;43.566;1.398;2023-01-28T01:28:32;100413.50;;;4.25;76.43
49541;BME280;35432;43.566;1.398;2023-01-28T01:31:03;100413.50;;;4.25;76.06
49541;BME280;35432;43.566;1.398;2023-01-28T01:33:29;100425.78;;;4.29;76.39
49541;BME280;35432;43.566;1.398;2023-01-28T01:35:55;100424.09;;;4.31;76.31
49541;BME280;35432;43.566;1.398;2023-01-28T01:38:22;100422.41;;;4.34;76.00
49541;BME280;35432;43.566;1.398;2023-01-28T01:40:47;100431.13;;;4.36;76.41
49541;BME280;35432;43.566;1.398;2023-01-28T01:43:17;100428.59;;;4.39;76.12
49541;BME280;35432;43.566;1.398;2023-01-28T01:45:45;100419.91;;;4.38;76.18
49541;BME280;35432;43.566;1.398;2023-01-28T01:48:17;100424.28;;;4.41;76.04
49541;BME280;35432;43.566;1.398;2023-01-28T01:51:00;100426.88;;;4.39;75.48
49541;BME280;35432;43.566;1.398;2023-01-28T01:53:28;100432.97;;;4.40;75.91
49541;BME280;35432;43.566;1.398;2023-01-28T01:55:58;100429.50;;;4.39;75.65
49541;BME280;35432;43.566;1.398;2023-01-28T01:58:29;100425.97;;;4.39;75.90
49541;BME280;35432;43.566;1.398;2023-01-28T02:00:56;100425.13;;;4.38;75.94
49541;BME280;35432;43.566;1.398;2023-01-28T02:03:35;100424.22;;;4.38;75.70
49541;BME280;35432;43.566;1.398;2023-01-28T02:06:03;100425.13;;;4.40;76.12
49541;BME280;35432;43.566;1.398;2023-01-28T02:08:28;100428.59;;;4.39;76.11
49541;BME280;35432;43.566;1.398;2023-01-28T02:11:05;100428.56;;;4.37;75.67
49541;BME280;35432;43.566;1.398;2023-01-28T02:13:37;100428.63;;;4.40;75.63
49541;BME280;35432;43.566;1.398;2023-01-28T02:16:04;100434.72;;;4.41;75.85
49541;BME280;35432;43.566;1.398;2023-01-28T02:18:31;100429.50;;;4.41;76.03
49541;BME280;35432;43.566;1.398;2023-01-28T02:21:21;100430.34;;;4.40;75.67
49541;BME280;35432;43.566;1.398;2023-01-28T02:26:58;100427.69;;;4.37;75.12
49541;BME280;35432;43.566;1.398;2023-01-28T02:30:29;100432.03;;;4.36;75.48
49541;BME280;35432;43.566;1.398;2023-01-28T02:32:35;100439.88;;;4.38;75.77
49541;BME280;35432;43.566;1.398;2023-01-28T02:35:28;100448.53;;;4.37;75.34
49541;BME280;35432;43.566;1.398;2023-01-28T02:37:59;100453.81;;;4.40;75.71
49541;BME280;35432;43.566;1.398;2023-01-28T02:40:30;100450.38;;;4.41;75.83
49541;BME280;35432;43.566;1.398;2023-01-28T02:42:58;100447.81;;;4.42;75.76
49541;BME280;35432;43.566;1.398;2023-01-28T02:45:26;100442.53;;;4.41;75.66
49541;BME280;35432;43.566;1.398;2023-01-28T02:48:13;100443.47;;;4.43;75.75
49541;BME280;35432;43.566;1.398;2023-01-28T02:50:59;100448.66;;;4.43;75.22
49541;BME280;35432;43.566;1.398;2023-01-28T02:53:43;100453.88;;;4.43;74.96
49541;BME280;35432;43.566;1.398;2023-01-28T03:04:52;100437.38;;;4.42;75.12
49541;BME280;35432;43.566;1.398;2023-01-28T03:07:22;100446.13;;;4.44;75.45
49541;BME280;35432;43.566;1.398;2023-01-28T03:09:52;100442.59;;;4.44;75.26
49541;BME280;35432;43.566;1.398;2023-01-28T03:12:25;100447.88;;;4.45;75.21
49541;BME280;35432;43.566;1.398;2023-01-28T03:15:12;100450.44;;;4.44;75.31
49541;BME280;35432;43.566;1.398;2023-01-28T03:26:41;100470.44;;;4.43;74.76
49541;BME280;35432;43.566;1.398;2023-01-28T03:29:29;100468.69;;;4.44;74.60
49541;BME280;35432;43.566;1.398;2023-01-28T03:32:14;100466.19;;;4.47;75.12
49541;BME280;35432;43.566;1.398;2023-01-28T03:34:58;100464.44;;;4.48;75.26
49541;BME280;35432;43.566;1.398;2023-01-28T03:37:43;100466.19;;;4.49;75.00
49541;BME280;35432;43.566;1.398;2023-01-28T03:40:09;100474.03;;;4.49;75.08
49541;BME280;35432;43.566;1.398;2023-01-28T03:42:35;100470.56;;;4.48;74.92
49541;BME280;35432;43.566;1.398;2023-01-28T03:45:01;100467.03;;;4.48;74.84
49541;BME280;35432;43.566;1.398;2023-01-28T03:47:29;100463.53;;;4.45;74.92
49541;BME280;35432;43.566;1.398;2023-01-28T03:49:56;100466.19;;;4.47;75.26
49541;BME280;35432;43.566;1.398;2023-01-28T03:52:29;100467.09;;;4.49;75.09
49541;BME280;35432;43.566;1.398;2023-01-28T03:54:56;100459.28;;;4.49;74.77
49541;BME280;35432;43.566;1.398;2023-01-28T03:57:23;100467.09;;;4.49;74.96
49541;BME280;35432;43.566;1.398;2023-01-28T03:59:50;100468.00;;;4.51;75.03
49541;BME280;35432;43.566;1.398;2023-01-28T04:02:18;100467.94;;;4.48;74.91
49541;BME280;35432;43.566;1.398;2023-01-28T04:04:44;100454.91;;;4.50;74.91
49541;BME280;35432;43.566;1.398;2023-01-28T04:07:11;100468.84;;;4.50;74.92
49541;BME280;35432;43.566;1.398;2023-01-28T04:09:38;100466.25;;;4.50;74.96
49541;BME280;35432;43.566;1.398;2023-01-28T04:12:04;100467.97;;;4.50;75.04
49541;BME280;35432;43.566;1.398;2023-01-28T04:14:30;100462.75;;;4.50;75.01
49541;BME280;35432;43.566;1.398;2023-01-28T04:16:56;100465.34;;;4.50;75.11
49541;BME280;35432;43.566;1.398;2023-01-28T04:19:22;100469.59;;;4.46;74.84
49541;BME280;35432;43.566;1.398;2023-01-28T04:21:48;100467.81;;;4.43;74.78
49541;BME280;35432;43.566;1.398;2023-01-28T04:24:14;100473.94;;;4.45;75.16
49541;BME280;35432;43.566;1.398;2023-01-28T04:26:40;100476.50;;;4.44;75.36
49541;BME280;35432;43.566;1.398;2023-01-28T04:29:05;100474.81;;;4.46;75.08
49541;BME280;35432;43.566;1.398;2023-01-28T04:31:31;100470.50;;;4.47;75.16
49541;BME280;35432;43.566;1.398;2023-01-28T04:33:57;100477.44;;;4.46;74.61
49541;BME280;35432;43.566;1.398;2023-01-28T04:36:23;100473.06;;;4.45;74.84
49541;BME280;35432;43.566;1.398;2023-01-28T04:38:49;100474.81;;;4.46;75.46
49541;BME280;35432;43.566;1.398;2023-01-28T04:41:14;100473.06;;;4.45;75.06
49541;BME280;35432;43.566;1.398;2023-01-28T04:43:40;100480.94;;;4.47;75.06
49541;BME280;35432;43.566;1.398;2023-01-28T04:46:05;100486.19;;;4.48;75.10
49541;BME280;35432;43.566;1.398;2023-01-28T04:48:31;100492.25;;;4.47;74.79
49541;BME280;35432;43.566;1.398;2023-01-28T04:50:56;100494.88;;;4.49;75.01
49541;BME280;35432;43.566;1.398;2023-01-28T04:53:22;100495.78;;;4.49;74.79
49541;BME280;35432;43.566;1.398;2023-01-28T04:55:48;100494.03;;;4.48;74.88
49541;BME280;35432;43.566;1.398;2023-01-28T04:58:13;100494.88;;;4.47;74.82
49541;BME280;35432;43.566;1.398;2023-01-28T05:00:38;100495.69;;;4.46;75.03
49541;BME280;35432;43.566;1.398;2023-01-28T05:03:04;100493.06;;;4.44;74.49
49541;BME280;35432;43.566;1.398;2023-01-28T05:05:29;100502.59;;;4.44;74.64
49541;BME280;35432;43.566;1.398;2023-01-28T05:07:56;100506.94;;;4.43;74.65
49541;BME280;35432;43.566;1.398;2023-01-28T05:10:22;100506.03;;;4.43;74.85
49541;BME280;35432;43.566;1.398;2023-01-28T05:12:48;100515.63;;;4.44;74.93
49541;BME280;35432;43.566;1.398;2023-01-28T05:15:18;100508.69;;;4.44;74.42
49541;BME280;35432;43.566;1.398;2023-01-28T05:17:44;100515.63;;;4.44;74.81
49541;BME280;35432;43.566;1.398;2023-01-28T05:20:10;100516.41;;;4.40;74.41
49541;BME280;35432;43.566;1.398;2023-01-28T05:22:37;100517.28;;;4.40;74.74
49541;BME280;35432;43.566;1.398;2023-01-28T05:25:03;100520.75;;;4.41;74.73
49541;BME280;35432;43.566;1.398;2023-01-28T05:27:29;100530.34;;;4.42;74.86
49541;BME280;35432;43.566;1.398;2023-01-28T05:29:55;100532.13;;;4.43;74.72
49541;BME280;35432;43.566;1.398;2023-01-28T05:32:20;100524.28;;;4.43;74.89
49541;BME280;35432;43.566;1.398;2023-01-28T05:34:45;100528.66;;;4.44;74.91
49541;BME280;35432;43.566;1.398;2023-01-28T05:37:11;100534.66;;;4.40;73.73
49541;BME280;35432;43.566;1.398;2023-01-28T05:39:36;100537.31;;;4.43;74.58
49541;BME280;35432;43.566;1.398;2023-01-28T05:42:02;100536.41;;;4.41;74.48
49541;BME280;35432;43.566;1.398;2023-01-28T05:44:27;100535.56;;;4.42;74.53
49541;BME280;35432;43.566;1.398;2023-01-28T05:46:53;100542.47;;;4.40;74.54
49541;BME280;35432;43.566;1.398;2023-01-28T05:49:18;100537.19;;;4.37;74.23
49541;BME280;35432;43.566;1.398;2023-01-28T05:51:43;100541.59;;;4.39;74.45
49541;BME280;35432;43.566;1.398;2023-01-28T05:54:09;100535.47;;;4.37;74.70
49541;BME280;35432;43.566;1.398;2023-01-28T05:56:35;100539.78;;;4.37;74.38
49541;BME280;35432;43.566;1.398;2023-01-28T05:59:01;100543.25;;;4.36;74.80
49541;BME280;35432;43.566;1.398;2023-01-28T06:01:27;100544.13;;;4.36;74.60
49541;BME280;35432;43.566;1.398;2023-01-28T06:03:53;100538.03;;;4.36;74.88
49541;BME280;35432;43.566;1.398;2023-01-28T06:06:18;100544.94;;;4.34;74.25
49541;BME280;35432;43.566;1.398;2023-01-28T06:08:44;100549.28;;;4.35;74.56
49541;BME280;35432;43.566;1.398;2023-01-28T06:11:09;100544.97;;;4.35;74.96
49541;BME280;35432;43.566;1.398;2023-01-28T06:13:34;100549.28;;;4.35;74.75
49541;BME280;35432;43.566;1.398;2023-01-28T06:16:00;100552.75;;;4.34;74.38
49541;BME280;35432;43.566;1.398;2023-01-28T06:18:25;100554.50;;;4.35;74.45
49541;BME280;35432;43.566;1.398;2023-01-28T06:20:51;100554.50;;;4.35;74.75
49541;BME280;35432;43.566;1.398;2023-01-28T06:23:16;100561.50;;;4.36;74.58
49541;BME280;35432;43.566;1.398;2023-01-28T06:25:42;100562.38;;;4.36;74.92
49541;BME280;35432;43.566;1.398;2023-01-28T06:28:07;100566.75;;;4.37;74.34
49541;BME280;35432;43.566;1.398;2023-01-28T06:30:33;100568.53;;;4.38;74.47
49541;BME280;35432;43.566;1.398;2023-01-28T06:32:59;100568.53;;;4.40;74.35
49541;BME280;35432;43.566;1.398;2023-01-28T06:35:24;100575.44;;;4.38;74.53
49541;BME280;35432;43.566;1.398;2023-01-28T06:37:51;100572.84;;;4.38;74.50
49541;BME280;35432;43.566;1.398;2023-01-28T06:40:17;100573.69;;;4.37;74.62
49541;BME280;35432;43.566;1.398;2023-01-28T06:42:44;100572.75;;;4.35;74.71
49541;BME280;35432;43.566;1.398;2023-01-28T06:45:09;100577.13;;;4.36;74.78
49541;BME280;35432;43.566;1.398;2023-01-28T06:47:37;100567.59;;;4.36;74.41
49541;BME280;35432;43.566;1.398;2023-01-28T06:50:03;100575.44;;;4.38;74.64
49541;BME280;35432;43.566;1.398;2023-01-28T06:52:28;100577.06;;;4.33;74.38
49541;BME280;35432;43.566;1.398;2023-01-28T06:54:54;100586.59;;;4.32;74.63
49541;BME280;35432;43.566;1.398;2023-01-28T06:57:19;100585.81;;;4.35;74.99
49541;BME280;35432;43.566;1.398;2023-01-28T06:59:45;100585.75;;;4.33;74.56
49541;BME280;35432;43.566;1.398;2023-01-28T07:02:10;100586.66;;;4.34;74.41
49541;BME280;35432;43.566;1.398;2023-01-28T07:04:36;100590.03;;;4.31;74.37
49541;BME280;35432;43.566;1.398;2023-01-28T07:07:01;100587.44;;;4.31;74.94
49541;BME280;35432;43.566;1.398;2023-01-28T07:09:27;100594.41;;;4.32;74.79
49541;BME280;35432;43.566;1.398;2023-01-28T07:11:52;100592.63;;;4.29;74.33
49541;BME280;35432;43.566;1.398;2023-01-28T07:14:17;100593.53;;;4.31;74.59
49541;BME280;35432;43.566;1.398;2023-01-28T07:16:43;100596.16;;;4.31;74.69
49541;BME280;35432;43.566;1.398;2023-01-28T07:19:08;100597.00;;;4.30;74.58
49541;BME280;35432;43.566;1.398;2023-01-28T07:21:34;100609.19;;;4.31;74.74
49541;BME280;35432;43.566;1.398;2023-01-28T07:23:59;100609.19;;;4.31;74.59
49541;BME280;35432;43.566;1.398;2023-01-28T07:26:24;100615.25;;;4.30;74.94
49541;BME280;35432;43.566;1.398;2023-01-28T07:28:50;100616.09;;;4.29;75.05
49541;BME280;35432;43.566;1.398;2023-01-28T07:31:15;100621.31;;;4.31;74.88
49541;BME280;35432;43.566;1.398;2023-01-28T07:33:41;100622.22;;;4.31;75.14
49541;BME280;35432;43.566;1.398;2023-01-28T07:36:06;100625.75;;;4.34;75.06
49541;BME280;35432;43.566;1.398;2023-01-28T07:38:32;100631.03;;;4.35;74.67
49541;BME280;35432;43.566;1.398;2023-01-28T07:40:57;100633.72;;;4.38;74.91
49541;BME280;35432;43.566;1.398;2023-01-28T07:43:23;100645.00;;;4.39;74.71
49541;BME280;35432;43.566;1.398;2023-01-28T07:45:49;100645.91;;;4.39;74.62
49541;BME280;35432;43.566;1.398;2023-01-28T07:48:14;100650.22;;;4.39;74.45
49541;BME280;35432;43.566;1.398;2023-01-28T07:50:40;100655.50;;;4.42;74.61
49541;BME280;35432;43.566;1.398;2023-01-28T07:53:08;100661.66;;;4.44;74.88
49541;BME280;35432;43.566;1.398;2023-01-28T07:55:35;100659.09;;;4.45;74.72
49541;BME280;35432;43.566;1.398;2023-01-28T07:58:01;100660.72;;;4.42;74.55
49541;BME280;35432;43.566;1.398;2023-01-28T08:00:30;100659.88;;;4.43;74.51
49541;BME280;35432;43.566;1.398;2023-01-28T08:03:03;100657.28;;;4.43;74.47
49541;BME280;35432;43.566;1.398;2023-01-28T08:05:39;100661.66;;;4.44;74.00
49541;BME280;35432;43.566;1.398;2023-01-28T08:08:06;100663.41;;;4.45;74.89
49541;BME280;35432;43.566;1.398;2023-01-28T08:10:32;100668.63;;;4.45;74.68
49541;BME280;35432;43.566;1.398;2023-01-28T08:12:58;100676.56;;;4.48;74.81
49541;BME280;35432;43.566;1.398;2023-01-28T08:15:23;100668.78;;;4.50;74.30
49541;BME280;35432;43.566;1.398;2023-01-28T08:17:49;100674.03;;;4.51;74.92
49541;BME280;35432;43.566;1.398;2023-01-28T08:20:15;100665.38;;;4.52;74.57
49541;BME280;35432;43.566;1.398;2023-01-28T08:22:41;100674.13;;;4.54;74.79
49541;BME280;35432;43.566;1.398;2023-01-28T08:25:06;100682.06;;;4.59;74.68
49541;BME280;35432;43.566;1.398;2023-01-28T08:27:32;100673.44;;;4.62;74.58
49541;BME280;35432;43.566;1.398;2023-01-28T08:29:57;100681.31;;;4.63;74.59
49541;BME280;35432;43.566;1.398;2023-01-28T08:32:23;100684.88;;;4.67;74.52
49541;BME280;35432;43.566;1.398;2023-01-28T08:34:48;100680.56;;;4.67;74.37
49541;BME280;35432;43.566;1.398;2023-01-28T08:37:13;100687.56;;;4.70;74.50
49541;BME280;35432;43.566;1.398;2023-01-28T08:39:39;100685.91;;;4.72;74.53
49541;BME280;35432;43.566;1.398;2023-01-28T08:42:05;100690.28;;;4.74;74.24
49541;BME280;35432;43.566;1.398;2023-01-28T08:44:31;100690.28;;;4.73;74.11
49541;BME280;35432;43.566;1.398;2023-01-28T08:46:56;100703.31;;;4.73;74.79
49541;BME280;35432;43.566;1.398;2023-01-28T08:49:22;100696.34;;;4.72;74.46
49541;BME280;35432;43.566;1.398;2023-01-28T08:51:47;100693.72;;;4.72;74.28
49541;BME280;35432;43.566;1.398;2023-01-28T08:54:13;100695.50;;;4.73;74.42
49541;BME280;35432;43.566;1.398;2023-01-28T08:56:38;100694.66;;;4.74;74.38
49541;BME280;35432;43.566;1.398;2023-01-28T08:59:07;100699.88;;;4.74;74.37
49541;BME280;35432;43.566;1.398;2023-01-28T09:01:32;100701.63;;;4.75;74.66
49541;BME280;35432;43.566;1.398;2023-01-28T09:03:58;100697.19;;;4.72;74.32
49541;BME280;35432;43.566;1.398;2023-01-28T09:06:23;100701.56;;;4.72;74.29
49541;BME280;35432;43.566;1.398;2023-01-28T09:08:49;100698.97;;;4.73;73.98
49541;BME280;35432;43.566;1.398;2023-01-28T09:11:14;100705.94;;;4.74;74.17
49541;BME280;35432;43.566;1.398;2023-01-28T09:13:40;100705.09;;;4.76;74.10
49541;BME280;35432;43.566;1.398;2023-01-28T09:16:05;100713.00;;;4.77;74.13
49541;BME280;35432;43.566;1.398;2023-01-28T09:18:31;100709.53;;;4.78;74.30
49541;BME280;35432;43.566;1.398;2023-01-28T09:20:56;100710.53;;;4.83;74.25
49541;BME280;35432;43.566;1.398;2023-01-28T09:23:22;100724.59;;;4.88;74.35
49541;BME280;35432;43.566;1.398;2023-01-28T09:25:47;100726.44;;;4.93;74.34
49541;BME280;35432;43.566;1.398;2023-01-28T09:28:13;100735.22;;;4.95;74.16
49541;BME280;35432;43.566;1.398;2023-01-28T09:30:38;100731.84;;;4.99;74.16
49541;BME280;35432;43.566;1.398;2023-01-28T09:33:04;100730.16;;;5.01;74.05
49541;BME280;35432;43.566;1.398;2023-01-28T09:35:30;100734.53;;;5.02;74.15
49541;BME280;35432;43.566;1.398;2023-01-28T09:37:56;100734.47;;;5.00;74.07
49541;BME280;35432;43.566;1.398;2023-01-28T09:43:00;100738.91;;;5.03;74.27
49541;BME280;35432;43.566;1.398;2023-01-28T09:45:39;100734.53;;;5.02;73.19
49541;BME280;35432;43.566;1.398;2023-01-28T09:48:12;100728.44;;;5.03;73.73
49541;BME280;35432;43.566;1.398;2023-01-28T09:50:42;100743.28;;;5.04;73.43
49541;BME280;35432;43.566;1.398;2023-01-28T09:53:25;100735.38;;;5.02;73.10
49541;BME280;35432;43.566;1.398;2023-01-28T09:56:44;100738.00;;;5.02;73.27
49541;BME280;35432;43.566;1.398;2023-01-28T09:58:51;100739.88;;;5.07;73.83
49541;BME280;35432;43.566;1.398;2023-01-28T10:01:53;100740.66;;;5.04;72.85
49541;BME280;35432;43.566;1.398;2023-01-28T10:07:19;100740.78;;;5.09;74.02
49541;BME280;35432;43.566;1.398;2023-01-28T10:10:08;100737.28;;;5.08;73.18
49541;BME280;35432;43.566;1.398;2023-01-28T10:17:53;100733.94;;;5.14;73.75
49541;BME280;35432;43.566;1.398;2023-01-28T10:20:24;100735.75;;;5.16;73.78
49541;BME280;35432;43.566;1.398;2023-01-28T10:23:06;100731.53;;;5.22;73.22
49541;BME280;35432;43.566;1.398;2023-01-28T10:25:33;100729.16;;;5.31;73.87
49541;BME280;35432;43.566;1.398;2023-01-28T10:28:00;100737.97;;;5.36;73.73
49541;BME280;35432;43.566;1.398;2023-01-28T10:30:29;100726.81;;;5.42;73.57
49541;BME280;35432;43.566;1.398;2023-01-28T10:32:59;100733.06;;;5.49;73.31
49541;BME280;35432;43.566;1.398;2023-01-28T10:35:26;100734.97;;;5.56;72.99
49541;BME280;35432;43.566;1.398;2023-01-28T10:38:00;100735.88;;;5.56;71.90
49541;BME280;35432;43.566;1.398;2023-01-28T10:40:26;100727.22;;;5.59;72.61
49541;BME280;35432;43.566;1.398;2023-01-28T10:42:53;100735.19;;;5.65;72.88
49541;BME280;35432;43.566;1.398;2023-01-28T10:45:27;100730.06;;;5.68;71.56
49541;BME280;35432;43.566;1.398;2023-01-28T10:48:22;100724.97;;;5.74;71.14
49541;BME280;35432;43.566;1.398;2023-01-28T10:50:53;100730.41;;;5.84;72.31
49541;BME280;35432;43.566;1.398;2023-01-28T10:53:36;100722.56;;;5.84;71.36
49541;BME280;35432;43.566;1.398;2023-01-28T10:56:04;100720.06;;;5.90;72.57
49541;BME280;35432;43.566;1.398;2023-01-28T10:58:33;100725.28;;;5.90;72.73
49541;BME280;35432;43.566;1.398;2023-01-28T11:01:02;100721.81;;;5.89;72.68
49541;BME280;35432;43.566;1.398;2023-01-28T11:03:29;100726.25;;;5.92;72.61
49541;BME280;35432;43.566;1.398;2023-01-28T11:06:00;100731.53;;;5.95;72.00
49541;BME280;35432;43.566;1.398;2023-01-28T11:08:28;100728.91;;;5.95;72.05
49541;BME280;35432;43.566;1.398;2023-01-28T11:10:55;100725.53;;;5.99;72.45
49541;BME280;35432;43.566;1.398;2023-01-28T11:13:21;100725.56;;;6.01;72.27
49541;BME280;35432;43.566;1.398;2023-01-28T11:15:50;100726.47;;;6.01;71.80
49541;BME280;35432;43.566;1.398;2023-01-28T11:18:39;100721.13;;;5.98;70.87
49541;BME280;35432;43.566;1.398;2023-01-28T11:21:28;100717.78;;;6.02;70.80
49541;BME280;35432;43.566;1.398;2023-01-28T11:24:06;100713.59;;;6.11;71.05
49541;BME280;35432;43.566;1.398;2023-01-28T11:26:43;100710.22;;;6.15;71.77
49541;BME280;35432;43.566;1.398;2023-01-28T11:29:30;100703.16;;;6.12;69.89
49541;BME280;35432;43.566;1.398;2023-01-28T11:31:56;100700.75;;;6.22;71.77
49541;BME280;35432;43.566;1.398;2023-01-28T11:34:28;100704.25;;;6.24;71.77
49541;BME280;35432;43.566;1.398;2023-01-28T11:37:09;100701.69;;;6.25;70.51
49541;BME280;35432;43.566;1.398;2023-01-28T11:39:36;100700.03;;;6.30;71.47
49541;BME280;35432;43.566;1.398;2023-01-28T11:42:19;100699.09;;;6.27;70.32
49541;BME280;35432;43.566;1.398;2023-01-28T11:44:48;100701.78;;;6.30;71.93
49541;BME280;35432;43.566;1.398;2023-01-28T11:50:14;100688.72;;;6.31;70.03
49541;BME280;35432;43.566;1.398;2023-01-28T11:52:57;100698.22;;;6.26;69.44
49541;BME280;35432;43.566;1.398;2023-01-28T12:00:49;100688.63;;;6.27;70.42
49541;BME280;35432;43.566;1.398;2023-01-28T12:11:32;100665.41;;;6.42;71.63
49541;BME280;35432;43.566;1.398;2023-01-28T12:18:16;100656.75;;;6.45;69.19
49541;BME280;35432;43.566;1.398;2023-01-28T12:21:05;100650.81;;;6.55;71.11
49541;BME280;35432;43.566;1.398;2023-01-28T12:23:41;100648.31;;;6.60;70.67
49541;BME280;35432;43.566;1.398;2023-01-28T12:26:28;100651.88;;;6.64;71.08
49541;BME280;35432;43.566;1.398;2023-01-28T12:42:57;100631.09;;;6.73;69.89
49541;BME280;35432;43.566;1.398;2023-01-28T12:45:38;100621.44;;;6.70;68.77
49541;BME280;35432;43.566;1.398;2023-01-28T12:48:27;100614.38;;;6.65;68.86
49541;BME280;35432;43.566;1.398;2023-01-28T12:51:03;100616.91;;;6.61;69.60
49541;BME280;35432;43.566;1.398;2023-01-28T12:56:17;100616.91;;;6.61;70.42
49541;BME280;35432;43.566;1.398;2023-01-28T13:01:56;100614.13;;;6.52;66.79
49541;BME280;35432;43.566;1.398;2023-01-28T13:07:03;100613.34;;;6.56;70.05
49541;BME280;35432;43.566;1.398;2023-01-28T13:09:33;100610.72;;;6.56;70.34
49541;BME280;35432;43.566;1.398;2023-01-28T13:12:00;100613.28;;;6.53;70.08
49541;BME280;35432;43.566;1.398;2023-01-28T13:14:30;100608.91;;;6.52;70.90
49541;BME280;35432;43.566;1.398;2023-01-28T13:17:07;100605.38;;;6.50;70.25
49541;BME280;35432;43.566;1.398;2023-01-28T13:19:40;100600.09;;;6.47;70.22
49541;BME280;35432;43.566;1.398;2023-01-28T13:22:27;100598.28;;;6.43;67.51
49541;BME280;35432;43.566;1.398;2023-01-28T13:24:53;100602.66;;;6.44;69.96
49541;BME280;35432;43.566;1.398;2023-01-28T13:27:26;100607.81;;;6.39;68.63
49541;BME280;35432;43.566;1.398;2023-01-28T13:30:18;100604.22;;;6.36;67.67
49541;BME280;35432;43.566;1.398;2023-01-28T13:33:03;100604.22;;;6.36;68.52
49541;BME280;35432;43.566;1.398;2023-01-28T13:35:37;100611.19;;;6.34;69.97
49541;BME280;35432;43.566;1.398;2023-01-28T13:38:13;100603.28;;;6.30;69.82
49541;BME280;35432;43.566;1.398;2023-01-28T13:40:40;100605.88;;;6.30;70.29
49541;BME280;35432;43.566;1.398;2023-01-28T13:43:39;100606.59;;;6.22;68.71
49541;BME280;35432;43.566;1.398;2023-01-28T13:46:25;100614.47;;;6.23;69.96
49541;BME280;35432;43.566;1.398;2023-01-28T13:48:53;100608.41;;;6.24;70.73
49541;BME280;35432;43.566;1.398;2023-01-28T13:51:28;100617.94;;;6.22;69.77
49541;BME280;35432;43.566;1.398;2023-01-28T13:56:31;100631.75;;;6.15;70.61
49541;BME280;35432;43.566;1.398;2023-01-28T14:07:29;100636.72;;;6.02;70.96
49541;BME280;35432;43.566;1.398;2023-01-28T14:13:32;100635.50;;;5.88;68.51
49541;BME280;35432;43.566;1.398;2023-01-28T14:18:51;100646.06;;;5.91;70.83
49541;BME280;35432;43.566;1.398;2023-01-28T14:21:19;100652.09;;;5.90;71.41
49541;BME280;35432;43.566;1.398;2023-01-28T14:23:50;100659.03;;;5.88;70.52
49541;BME280;35432;43.566;1.398;2023-01-28T14:31:38;100649.38;;;5.84;70.04
49541;BME280;35432;43.566;1.398;2023-01-28T14:34:10;100651.84;;;5.78;70.84
49541;BME280;35432;43.566;1.398;2023-01-28T14:36:43;100650.03;;;5.73;70.28
49541;BME280;35432;43.566;1.398;2023-01-28T14:39:15;100656.91;;;5.68;70.53
49541;BME280;35432;43.566;1.398;2023-01-28T14:41:43;100660.31;;;5.66;70.89
49541;BME280;35432;43.566;1.398;2023-01-28T14:44:17;100662.03;;;5.65;71.30
49541;BME280;35432;43.566;1.398;2023-01-28T14:52:31;100672.34;;;5.59;69.80
49541;BME280;35432;43.566;1.398;2023-01-28T14:55:24;100676.53;;;5.52;67.79